sensor_id;sensor_type;location;lat;lon;timestamp;P1;durP1;ratioP1;P2;durP2;ratioP2
28920;SDS011;16035;53.594;9.952;2024-03-08T00:00:00;21.40;;;10.95;;
28920;SDS011;16035;53.594;9.952;2024-03-08T00:02:09;19.42;;;10.98;;
28920;SDS011;16035;53.594;9.952;2024-03-08T00:04:09;18.77;;;10.10;;
28920;SDS011;16035;53.594;9.952;2024-03-08T00:06:10;16.67;;;10.20;;
28920;SDS011;16035;53.594;9.952;2024-03-08T00:08:10;19.17;;;10.70;;
28920;SDS011;16035;53.594;9.952;2024-03-08T00:10:11;24.43;;;10.80;;
28920;SDS011;16035;53.594;9.952;2024-03-08T00:12:12;19.23;;;10.75;;
28920;SDS011;16035;53.594;9.952;2024-03-08T00:14:13;21.23;;;10.97;;
28920;SDS011;16035;53.594;9.952;2024-03-08T00:16:13;14.97;;;7.80;;
28920;SDS011;16035;53.594;9.952;2024-03-08T00:18:13;17.30;;;8.23;;
28920;SDS011;16035;53.594;9.952;2024-03-08T00:20:14;22.53;;;12.10;;
28920;SDS011;16035;53.594;9.952;2024-03-08T00:22:15;19.50;;;10.80;;
28920;SDS011;16035;53.594;9.952;2024-03-08T00:26:16;22.83;;;10.93;;
28920;SDS011;16035;53.594;9.952;2024-03-08T00:28:16;25.47;;;10.93;;
28920;SDS011;16035;53.594;9.952;2024-03-08T00:30:18;20.65;;;10.48;;
28920;SDS011;16035;53.594;9.952;2024-03-08T00:32:19;20.67;;;10.63;;
28920;SDS011;16035;53.594;9.952;2024-03-08T00:34:19;15.13;;;7.60;;
28920;SDS011;16035;53.594;9.952;2024-03-08T00:36:19;18.97;;;11.00;;
28920;SDS011;16035;53.594;9.952;2024-03-08T00:38:20;22.23;;;10.70;;
28920;SDS011;16035;53.594;9.952;2024-03-08T00:40:20;19.67;;;11.77;;
28920;SDS011;16035;53.594;9.952;2024-03-08T00:42:21;18.17;;;9.87;;
28920;SDS011;16035;53.594;9.952;2024-03-08T00:44:21;15.30;;;8.27;;
28920;SDS011;16035;53.594;9.952;2024-03-08T00:46:21;14.60;;;7.57;;
28920;SDS011;16035;53.594;9.952;2024-03-08T00:48:22;22.67;;;11.27;;
28920;SDS011;16035;53.594;9.952;2024-03-08T00:50:22;19.60;;;10.77;;
28920;SDS011;16035;53.594;9.952;2024-03-08T00:52:22;19.40;;;10.17;;
28920;SDS011;16035;53.594;9.952;2024-03-08T00:54:24;19.73;;;10.90;;
28920;SDS011;16035;53.594;9.952;2024-03-08T00:56:24;20.13;;;11.30;;
28920;SDS011;16035;53.594;9.952;2024-03-08T00:58:25;20.20;;;11.43;;
28920;SDS011;16035;53.594;9.952;2024-03-08T01:00:25;19.47;;;10.67;;
28920;SDS011;16035;53.594;9.952;2024-03-08T01:02:25;20.30;;;10.63;;
28920;SDS011;16035;53.594;9.952;2024-03-08T01:04:26;22.10;;;11.17;;
28920;SDS011;16035;53.594;9.952;2024-03-08T01:06:29;20.30;;;10.40;;
28920;SDS011;16035;53.594;9.952;2024-03-08T01:08:29;15.30;;;8.23;;
28920;SDS011;16035;53.594;9.952;2024-03-08T01:10:29;17.33;;;9.80;;
28920;SDS011;16035;53.594;9.952;2024-03-08T01:12:30;17.13;;;10.67;;
28920;SDS011;16035;53.594;9.952;2024-03-08T01:14:30;25.87;;;10.40;;
28920;SDS011;16035;53.594;9.952;2024-03-08T01:16:30;19.47;;;11.33;;
28920;SDS011;16035;53.594;9.952;2024-03-08T01:18:33;20.50;;;9.93;;
28920;SDS011;16035;53.594;9.952;2024-03-08T01:20:33;21.53;;;10.37;;
28920;SDS011;16035;53.594;9.952;2024-03-08T01:22:34;20.40;;;11.47;;
28920;SDS011;16035;53.594;9.952;2024-03-08T01:24:34;15.00;;;8.27;;
28920;SDS011;16035;53.594;9.952;2024-03-08T01:26:34;20.53;;;10.67;;
28920;SDS011;16035;53.594;9.952;2024-03-08T01:28:35;18.97;;;9.87;;
28920;SDS011;16035;53.594;9.952;2024-03-08T01:30:35;18.73;;;10.17;;
28920;SDS011;16035;53.594;9.952;2024-03-08T01:34:38;15.68;;;8.23;;
28920;SDS011;16035;53.594;9.952;2024-03-08T01:36:38;23.17;;;10.77;;
28920;SDS011;16035;53.594;9.952;2024-03-08T01:38:38;19.50;;;10.73;;
28920;SDS011;16035;53.594;9.952;2024-03-08T01:40:39;20.60;;;11.57;;
28920;SDS011;16035;53.594;9.952;2024-03-08T01:42:41;20.95;;;11.23;;
28920;SDS011;16035;53.594;9.952;2024-03-08T01:44:41;25.10;;;11.37;;
28920;SDS011;16035;53.594;9.952;2024-03-08T01:46:46;18.88;;;10.73;;
28920;SDS011;16035;53.594;9.952;2024-03-08T01:48:49;19.25;;;10.25;;
28920;SDS011;16035;53.594;9.952;2024-03-08T01:50:50;23.73;;;11.77;;
28920;SDS011;16035;53.594;9.952;2024-03-08T01:52:53;21.83;;;11.00;;
28920;SDS011;16035;53.594;9.952;2024-03-08T01:54:53;24.20;;;11.53;;
28920;SDS011;16035;53.594;9.952;2024-03-08T01:56:54;21.47;;;11.47;;
28920;SDS011;16035;53.594;9.952;2024-03-08T01:58:54;20.73;;;11.27;;
28920;SDS011;16035;53.594;9.952;2024-03-08T02:00:56;17.87;;;9.07;;
28920;SDS011;16035;53.594;9.952;2024-03-08T02:02:58;19.30;;;10.02;;
28920;SDS011;16035;53.594;9.952;2024-03-08T02:04:59;22.33;;;11.10;;
28920;SDS011;16035;53.594;9.952;2024-03-08T02:07:00;26.98;;;10.55;;
28920;SDS011;16035;53.594;9.952;2024-03-08T02:09:00;22.43;;;11.93;;
28920;SDS011;16035;53.594;9.952;2024-03-08T02:11:05;22.98;;;11.27;;
28920;SDS011;16035;53.594;9.952;2024-03-08T02:13:06;22.33;;;11.10;;
28920;SDS011;16035;53.594;9.952;2024-03-08T02:15:06;22.23;;;11.27;;
28920;SDS011;16035;53.594;9.952;2024-03-08T02:17:07;20.77;;;10.53;;
28920;SDS011;16035;53.594;9.952;2024-03-08T02:19:07;22.53;;;10.80;;
28920;SDS011;16035;53.594;9.952;2024-03-08T02:21:09;19.17;;;10.63;;
28920;SDS011;16035;53.594;9.952;2024-03-08T02:23:10;20.30;;;11.10;;
28920;SDS011;16035;53.594;9.952;2024-03-08T02:25:10;19.43;;;10.77;;
28920;SDS011;16035;53.594;9.952;2024-03-08T02:27:11;21.35;;;10.82;;
28920;SDS011;16035;53.594;9.952;2024-03-08T02:29:11;23.97;;;11.00;;
28920;SDS011;16035;53.594;9.952;2024-03-08T02:31:13;20.48;;;11.18;;
28920;SDS011;16035;53.594;9.952;2024-03-08T02:33:14;20.33;;;11.73;;
28920;SDS011;16035;53.594;9.952;2024-03-08T02:35:18;21.10;;;11.45;;
28920;SDS011;16035;53.594;9.952;2024-03-08T02:37:18;24.10;;;11.00;;
28920;SDS011;16035;53.594;9.952;2024-03-08T02:39:18;23.40;;;11.03;;
28920;SDS011;16035;53.594;9.952;2024-03-08T02:41:19;21.10;;;11.23;;
28920;SDS011;16035;53.594;9.952;2024-03-08T02:43:20;26.90;;;11.53;;
28920;SDS011;16035;53.594;9.952;2024-03-08T02:45:24;21.10;;;11.63;;
28920;SDS011;16035;53.594;9.952;2024-03-08T02:47:25;20.43;;;10.47;;
28920;SDS011;16035;53.594;9.952;2024-03-08T02:49:26;20.38;;;10.75;;
28920;SDS011;16035;53.594;9.952;2024-03-08T02:51:26;19.73;;;11.33;;
28920;SDS011;16035;53.594;9.952;2024-03-08T02:53:29;20.30;;;11.45;;
28920;SDS011;16035;53.594;9.952;2024-03-08T02:55:29;23.10;;;11.23;;
28920;SDS011;16035;53.594;9.952;2024-03-08T02:57:30;22.20;;;10.23;;
28920;SDS011;16035;53.594;9.952;2024-03-08T02:59:30;18.57;;;9.97;;
28920;SDS011;16035;53.594;9.952;2024-03-08T03:01:30;23.77;;;11.83;;
28920;SDS011;16035;53.594;9.952;2024-03-08T03:03:32;22.02;;;11.50;;
28920;SDS011;16035;53.594;9.952;2024-03-08T03:05:33;22.30;;;10.93;;
28920;SDS011;16035;53.594;9.952;2024-03-08T03:07:36;21.27;;;11.23;;
28920;SDS011;16035;53.594;9.952;2024-03-08T03:09:37;20.65;;;11.38;;
28920;SDS011;16035;53.594;9.952;2024-03-08T03:11:37;20.87;;;11.43;;
28920;SDS011;16035;53.594;9.952;2024-03-08T03:13:38;19.40;;;9.67;;
28920;SDS011;16035;53.594;9.952;2024-03-08T03:15:38;20.43;;;10.83;;
28920;SDS011;16035;53.594;9.952;2024-03-08T03:17:41;20.83;;;11.30;;
28920;SDS011;16035;53.594;9.952;2024-03-08T03:19:46;23.40;;;12.32;;
28920;SDS011;16035;53.594;9.952;2024-03-08T03:21:46;17.57;;;10.57;;
28920;SDS011;16035;53.594;9.952;2024-03-08T03:23:47;20.53;;;11.67;;
28920;SDS011;16035;53.594;9.952;2024-03-08T03:25:48;20.90;;;11.23;;
28920;SDS011;16035;53.594;9.952;2024-03-08T03:27:48;22.70;;;11.33;;
28920;SDS011;16035;53.594;9.952;2024-03-08T03:29:49;17.08;;;8.82;;
28920;SDS011;16035;53.594;9.952;2024-03-08T03:31:51;19.23;;;10.20;;
28920;SDS011;16035;53.594;9.952;2024-03-08T03:33:52;19.07;;;10.73;;
28920;SDS011;16035;53.594;9.952;2024-03-08T03:35:52;21.43;;;11.43;;
28920;SDS011;16035;53.594;9.952;2024-03-08T03:37:53;23.63;;;11.47;;
28920;SDS011;16035;53.594;9.952;2024-03-08T03:40:06;20.73;;;11.23;;
28920;SDS011;16035;53.594;9.952;2024-03-08T03:42:08;20.60;;;11.32;;
28920;SDS011;16035;53.594;9.952;2024-03-08T03:44:08;21.27;;;10.77;;
28920;SDS011;16035;53.594;9.952;2024-03-08T03:46:09;20.90;;;10.50;;
28920;SDS011;16035;53.594;9.952;2024-03-08T03:48:10;17.70;;;9.13;;
28920;SDS011;16035;53.594;9.952;2024-03-08T03:50:11;23.43;;;11.67;;
28920;SDS011;16035;53.594;9.952;2024-03-08T03:52:11;21.07;;;10.87;;
28920;SDS011;16035;53.594;9.952;2024-03-08T03:54:12;21.47;;;11.53;;
28920;SDS011;16035;53.594;9.952;2024-03-08T03:56:13;17.17;;;9.03;;
28920;SDS011;16035;53.594;9.952;2024-03-08T03:58:13;21.90;;;10.73;;
28920;SDS011;16035;53.594;9.952;2024-03-08T04:00:14;25.02;;;12.43;;
28920;SDS011;16035;53.594;9.952;2024-03-08T04:02:14;15.67;;;8.07;;
28920;SDS011;16035;53.594;9.952;2024-03-08T04:04:15;14.83;;;8.33;;
28920;SDS011;16035;53.594;9.952;2024-03-08T04:06:15;21.45;;;10.93;;
28920;SDS011;16035;53.594;9.952;2024-03-08T04:08:16;23.03;;;11.23;;
28920;SDS011;16035;53.594;9.952;2024-03-08T04:10:17;17.60;;;8.30;;
28920;SDS011;16035;53.594;9.952;2024-03-08T04:12:17;22.30;;;10.83;;
28920;SDS011;16035;53.594;9.952;2024-03-08T04:14:17;23.03;;;10.93;;
28920;SDS011;16035;53.594;9.952;2024-03-08T04:16:17;20.13;;;11.20;;
28920;SDS011;16035;53.594;9.952;2024-03-08T04:18:19;22.25;;;11.43;;
28920;SDS011;16035;53.594;9.952;2024-03-08T04:20:19;24.87;;;12.23;;
28920;SDS011;16035;53.594;9.952;2024-03-08T04:22:19;23.33;;;12.17;;
28920;SDS011;16035;53.594;9.952;2024-03-08T04:24:20;23.03;;;11.90;;
28920;SDS011;16035;53.594;9.952;2024-03-08T04:26:20;25.00;;;11.83;;
28920;SDS011;16035;53.594;9.952;2024-03-08T04:28:21;17.57;;;10.73;;
28920;SDS011;16035;53.594;9.952;2024-03-08T04:30:21;24.60;;;12.00;;
28920;SDS011;16035;53.594;9.952;2024-03-08T04:32:22;23.30;;;11.10;;
28920;SDS011;16035;53.594;9.952;2024-03-08T04:34:22;14.97;;;8.20;;
28920;SDS011;16035;53.594;9.952;2024-03-08T04:36:22;21.20;;;11.40;;
28920;SDS011;16035;53.594;9.952;2024-03-08T04:38:24;22.48;;;11.23;;
28920;SDS011;16035;53.594;9.952;2024-03-08T04:40:25;20.57;;;11.50;;
28920;SDS011;16035;53.594;9.952;2024-03-08T04:42:28;21.17;;;11.27;;
28920;SDS011;16035;53.594;9.952;2024-03-08T04:44:30;18.02;;;10.18;;
28920;SDS011;16035;53.594;9.952;2024-03-08T04:46:31;26.67;;;12.05;;
28920;SDS011;16035;53.594;9.952;2024-03-08T04:48:31;21.37;;;11.07;;
28920;SDS011;16035;53.594;9.952;2024-03-08T04:50:32;23.47;;;11.53;;
28920;SDS011;16035;53.594;9.952;2024-03-08T04:52:32;24.80;;;12.30;;
28920;SDS011;16035;53.594;9.952;2024-03-08T04:54:32;23.13;;;12.33;;
28920;SDS011;16035;53.594;9.952;2024-03-08T04:56:33;21.77;;;11.43;;
28920;SDS011;16035;53.594;9.952;2024-03-08T04:58:36;21.37;;;11.73;;
28920;SDS011;16035;53.594;9.952;2024-03-08T05:00:36;26.17;;;13.48;;
28920;SDS011;16035;53.594;9.952;2024-03-08T05:02:37;22.70;;;12.37;;
28920;SDS011;16035;53.594;9.952;2024-03-08T05:04:41;22.65;;;12.05;;
28920;SDS011;16035;53.594;9.952;2024-03-08T05:06:42;21.92;;;11.95;;
28920;SDS011;16035;53.594;9.952;2024-03-08T05:08:42;26.33;;;12.03;;
28920;SDS011;16035;53.594;9.952;2024-03-08T05:10:43;27.83;;;11.33;;
28920;SDS011;16035;53.594;9.952;2024-03-08T05:12:43;24.17;;;12.00;;
28920;SDS011;16035;53.594;9.952;2024-03-08T05:14:47;21.60;;;11.75;;
28920;SDS011;16035;53.594;9.952;2024-03-08T05:16:49;25.88;;;14.15;;
28920;SDS011;16035;53.594;9.952;2024-03-08T05:18:50;25.37;;;11.77;;
28920;SDS011;16035;53.594;9.952;2024-03-08T05:20:51;22.35;;;12.35;;
28920;SDS011;16035;53.594;9.952;2024-03-08T05:22:51;24.43;;;12.53;;
28920;SDS011;16035;53.594;9.952;2024-03-08T05:24:52;21.07;;;9.43;;
28920;SDS011;16035;53.594;9.952;2024-03-08T05:26:52;20.97;;;10.90;;
28920;SDS011;16035;53.594;9.952;2024-03-08T05:28:52;24.97;;;11.70;;
28920;SDS011;16035;53.594;9.952;2024-03-08T05:30:52;24.07;;;12.00;;
28920;SDS011;16035;53.594;9.952;2024-03-08T05:32:56;22.65;;;12.30;;
28920;SDS011;16035;53.594;9.952;2024-03-08T05:34:57;28.80;;;13.00;;
28920;SDS011;16035;53.594;9.952;2024-03-08T05:36:57;27.02;;;12.23;;
28920;SDS011;16035;53.594;9.952;2024-03-08T05:38:58;27.15;;;12.82;;
28920;SDS011;16035;53.594;9.952;2024-03-08T05:40:59;16.17;;;9.23;;
28920;SDS011;16035;53.594;9.952;2024-03-08T05:42:59;22.13;;;11.90;;
28920;SDS011;16035;53.594;9.952;2024-03-08T05:44:59;24.00;;;12.40;;
28920;SDS011;16035;53.594;9.952;2024-03-08T05:47:00;23.07;;;11.60;;
28920;SDS011;16035;53.594;9.952;2024-03-08T05:49:00;28.17;;;12.50;;
28920;SDS011;16035;53.594;9.952;2024-03-08T05:51:05;26.40;;;13.43;;
28920;SDS011;16035;53.594;9.952;2024-03-08T05:53:05;22.90;;;11.83;;
28920;SDS011;16035;53.594;9.952;2024-03-08T05:55:09;22.02;;;12.27;;
28920;SDS011;16035;53.594;9.952;2024-03-08T05:57:09;21.37;;;12.37;;
28920;SDS011;16035;53.594;9.952;2024-03-08T05:59:11;24.97;;;11.30;;
28920;SDS011;16035;53.594;9.952;2024-03-08T06:01:12;22.90;;;12.32;;
28920;SDS011;16035;53.594;9.952;2024-03-08T06:03:12;27.00;;;13.07;;
28920;SDS011;16035;53.594;9.952;2024-03-08T06:05:13;25.33;;;13.53;;
28920;SDS011;16035;53.594;9.952;2024-03-08T06:07:13;23.90;;;12.27;;
28920;SDS011;16035;53.594;9.952;2024-03-08T06:09:14;25.90;;;11.97;;
28920;SDS011;16035;53.594;9.952;2024-03-08T06:11:21;25.90;;;12.43;;
28920;SDS011;16035;53.594;9.952;2024-03-08T06:13:21;24.50;;;12.00;;
28920;SDS011;16035;53.594;9.952;2024-03-08T06:15:22;24.03;;;12.63;;
28920;SDS011;16035;53.594;9.952;2024-03-08T06:17:22;29.77;;;14.30;;
28920;SDS011;16035;53.594;9.952;2024-03-08T06:19:25;22.70;;;12.20;;
28920;SDS011;16035;53.594;9.952;2024-03-08T06:21:26;25.02;;;12.57;;
28920;SDS011;16035;53.594;9.952;2024-03-08T06:23:27;26.40;;;13.30;;
28920;SDS011;16035;53.594;9.952;2024-03-08T06:25:27;28.63;;;12.97;;
28920;SDS011;16035;53.594;9.952;2024-03-08T06:27:27;26.50;;;12.20;;
28920;SDS011;16035;53.594;9.952;2024-03-08T06:29:28;24.63;;;13.17;;
28920;SDS011;16035;53.594;9.952;2024-03-08T06:31:28;21.37;;;10.23;;
28920;SDS011;16035;53.594;9.952;2024-03-08T06:33:29;33.40;;;13.63;;
28920;SDS011;16035;53.594;9.952;2024-03-08T06:35:30;22.88;;;12.63;;
28920;SDS011;16035;53.594;9.952;2024-03-08T06:37:32;22.90;;;12.70;;
28920;SDS011;16035;53.594;9.952;2024-03-08T06:39:33;24.08;;;12.63;;
28920;SDS011;16035;53.594;9.952;2024-03-08T06:41:36;32.53;;;16.23;;
28920;SDS011;16035;53.594;9.952;2024-03-08T06:43:36;26.67;;;13.90;;
28920;SDS011;16035;53.594;9.952;2024-03-08T06:45:37;29.73;;;14.40;;
28920;SDS011;16035;53.594;9.952;2024-03-08T06:47:37;28.57;;;13.27;;
28920;SDS011;16035;53.594;9.952;2024-03-08T06:49:38;29.53;;;13.43;;
28920;SDS011;16035;53.594;9.952;2024-03-08T06:51:38;28.17;;;13.47;;
28920;SDS011;16035;53.594;9.952;2024-03-08T06:53:41;24.38;;;12.95;;
28920;SDS011;16035;53.594;9.952;2024-03-08T06:55:41;25.50;;;13.17;;
28920;SDS011;16035;53.594;9.952;2024-03-08T06:57:42;30.00;;;12.80;;
28920;SDS011;16035;53.594;9.952;2024-03-08T06:59:42;30.40;;;13.83;;
28920;SDS011;16035;53.594;9.952;2024-03-08T07:01:42;27.70;;;13.50;;
28920;SDS011;16035;53.594;9.952;2024-03-08T07:03:43;30.77;;;13.87;;
28920;SDS011;16035;53.594;9.952;2024-03-08T07:05:46;26.63;;;13.43;;
28920;SDS011;16035;53.594;9.952;2024-03-08T07:07:46;28.03;;;14.60;;
28920;SDS011;16035;53.594;9.952;2024-03-08T07:09:49;23.38;;;12.68;;
28920;SDS011;16035;53.594;9.952;2024-03-08T07:11:49;26.83;;;14.10;;
28920;SDS011;16035;53.594;9.952;2024-03-08T07:13:54;29.40;;;14.18;;
28920;SDS011;16035;53.594;9.952;2024-03-08T07:15:54;24.97;;;13.60;;
28920;SDS011;16035;53.594;9.952;2024-03-08T07:17:55;26.80;;;14.37;;
28920;SDS011;16035;53.594;9.952;2024-03-08T07:19:55;25.47;;;14.37;;
28920;SDS011;16035;53.594;9.952;2024-03-08T07:21:57;28.00;;;14.35;;
28920;SDS011;16035;53.594;9.952;2024-03-08T07:23:57;25.73;;;14.43;;
28920;SDS011;16035;53.594;9.952;2024-03-08T07:26:00;30.65;;;15.05;;
28920;SDS011;16035;53.594;9.952;2024-03-08T07:28:01;26.33;;;14.95;;
28920;SDS011;16035;53.594;9.952;2024-03-08T07:30:02;29.03;;;16.40;;
28920;SDS011;16035;53.594;9.952;2024-03-08T07:32:03;26.63;;;14.80;;
28920;SDS011;16035;53.594;9.952;2024-03-08T07:34:21;29.05;;;15.05;;
28920;SDS011;16035;53.594;9.952;2024-03-08T07:36:21;26.83;;;12.87;;
28920;SDS011;16035;53.594;9.952;2024-03-08T07:38:24;28.95;;;14.55;;
28920;SDS011;16035;53.594;9.952;2024-03-08T07:40:24;30.17;;;15.77;;
28920;SDS011;16035;53.594;9.952;2024-03-08T07:42:25;22.35;;;11.73;;
28920;SDS011;16035;53.594;9.952;2024-03-08T07:44:26;24.20;;;12.27;;
28920;SDS011;16035;53.594;9.952;2024-03-08T07:46:26;26.40;;;11.50;;
28920;SDS011;16035;53.594;9.952;2024-03-08T07:48:26;29.70;;;15.10;;
28920;SDS011;16035;53.594;9.952;2024-03-08T07:50:27;27.93;;;14.07;;
28920;SDS011;16035;53.594;9.952;2024-03-08T07:52:27;26.17;;;14.13;;
28920;SDS011;16035;53.594;9.952;2024-03-08T07:54:27;26.97;;;13.97;;
28920;SDS011;16035;53.594;9.952;2024-03-08T07:56:28;26.40;;;13.63;;
28920;SDS011;16035;53.594;9.952;2024-03-08T07:58:28;28.30;;;14.73;;
28920;SDS011;16035;53.594;9.952;2024-03-08T08:00:29;33.37;;;15.07;;
28920;SDS011;16035;53.594;9.952;2024-03-08T08:02:31;29.50;;;15.25;;
28920;SDS011;16035;53.594;9.952;2024-03-08T08:04:31;31.53;;;16.30;;
28920;SDS011;16035;53.594;9.952;2024-03-08T08:06:31;28.80;;;15.03;;
28920;SDS011;16035;53.594;9.952;2024-03-08T08:08:33;26.10;;;14.70;;
28920;SDS011;16035;53.594;9.952;2024-03-08T08:10:33;27.30;;;15.43;;
28920;SDS011;16035;53.594;9.952;2024-03-08T08:12:33;29.93;;;15.97;;
28920;SDS011;16035;53.594;9.952;2024-03-08T08:14:34;27.33;;;15.53;;
28920;SDS011;16035;53.594;9.952;2024-03-08T08:16:34;26.63;;;15.70;;
28920;SDS011;16035;53.594;9.952;2024-03-08T08:18:36;26.33;;;15.52;;
28920;SDS011;16035;53.594;9.952;2024-03-08T08:20:37;30.20;;;16.47;;
28920;SDS011;16035;53.594;9.952;2024-03-08T08:22:40;25.93;;;15.83;;
28920;SDS011;16035;53.594;9.952;2024-03-08T08:24:43;27.95;;;15.23;;
28920;SDS011;16035;53.594;9.952;2024-03-08T08:26:43;23.50;;;15.73;;
28920;SDS011;16035;53.594;9.952;2024-03-08T08:28:44;22.92;;;15.45;;
28920;SDS011;16035;53.594;9.952;2024-03-08T08:30:46;21.23;;;15.00;;
28920;SDS011;16035;53.594;9.952;2024-03-08T08:32:46;24.70;;;16.17;;
28920;SDS011;16035;53.594;9.952;2024-03-08T08:34:47;22.77;;;15.90;;
28920;SDS011;16035;53.594;9.952;2024-03-08T08:36:47;21.30;;;15.68;;
28920;SDS011;16035;53.594;9.952;2024-03-08T08:38:48;23.40;;;15.63;;
28920;SDS011;16035;53.594;9.952;2024-03-08T08:40:48;22.03;;;15.50;;
28920;SDS011;16035;53.594;9.952;2024-03-08T08:42:49;22.15;;;16.02;;
28920;SDS011;16035;53.594;9.952;2024-03-08T08:44:50;21.20;;;15.07;;
28920;SDS011;16035;53.594;9.952;2024-03-08T08:46:52;22.05;;;15.88;;
28920;SDS011;16035;53.594;9.952;2024-03-08T08:48:53;20.60;;;15.30;;
28920;SDS011;16035;53.594;9.952;2024-03-08T08:50:53;22.47;;;15.70;;
28920;SDS011;16035;53.594;9.952;2024-03-08T08:52:55;21.30;;;15.75;;
28920;SDS011;16035;53.594;9.952;2024-03-08T08:54:55;19.77;;;15.20;;
28920;SDS011;16035;53.594;9.952;2024-03-08T08:56:56;21.10;;;16.05;;
28920;SDS011;16035;53.594;9.952;2024-03-08T08:58:57;22.63;;;15.60;;
28920;SDS011;16035;53.594;9.952;2024-03-08T09:00:57;22.02;;;15.07;;
28920;SDS011;16035;53.594;9.952;2024-03-08T09:02:59;23.02;;;15.77;;
28920;SDS011;16035;53.594;9.952;2024-03-08T09:05:00;21.55;;;15.77;;
28920;SDS011;16035;53.594;9.952;2024-03-08T09:07:01;19.42;;;15.25;;
28920;SDS011;16035;53.594;9.952;2024-03-08T09:09:01;20.00;;;15.03;;
28920;SDS011;16035;53.594;9.952;2024-03-08T09:11:03;20.85;;;15.48;;
28920;SDS011;16035;53.594;9.952;2024-03-08T09:15:06;21.73;;;15.43;;
28920;SDS011;16035;53.594;9.952;2024-03-08T09:17:13;22.05;;;15.70;;
28920;SDS011;16035;53.594;9.952;2024-03-08T09:19:17;20.02;;;15.05;;
28920;SDS011;16035;53.594;9.952;2024-03-08T09:21:19;21.02;;;15.45;;
28920;SDS011;16035;53.594;9.952;2024-03-08T09:23:19;22.83;;;15.23;;
28920;SDS011;16035;53.594;9.952;2024-03-08T09:25:20;20.77;;;14.40;;
28920;SDS011;16035;53.594;9.952;2024-03-08T09:27:20;21.47;;;15.33;;
28920;SDS011;16035;53.594;9.952;2024-03-08T09:29:20;22.83;;;16.13;;
28920;SDS011;16035;53.594;9.952;2024-03-08T09:31:21;19.60;;;14.53;;
28920;SDS011;16035;53.594;9.952;2024-03-08T09:33:22;22.10;;;15.43;;
28920;SDS011;16035;53.594;9.952;2024-03-08T09:35:22;18.93;;;14.70;;
28920;SDS011;16035;53.594;9.952;2024-03-08T09:37:22;21.00;;;15.23;;
28920;SDS011;16035;53.594;9.952;2024-03-08T09:39:23;22.67;;;15.23;;
28920;SDS011;16035;53.594;9.952;2024-03-08T09:41:23;27.47;;;17.00;;
28920;SDS011;16035;53.594;9.952;2024-03-08T09:43:23;21.07;;;15.53;;
28920;SDS011;16035;53.594;9.952;2024-03-08T09:45:24;21.23;;;15.57;;
28920;SDS011;16035;53.594;9.952;2024-03-08T09:47:25;19.60;;;14.65;;
28920;SDS011;16035;53.594;9.952;2024-03-08T09:49:33;19.98;;;15.25;;
28920;SDS011;16035;53.594;9.952;2024-03-08T09:51:34;19.33;;;13.93;;
28920;SDS011;16035;53.594;9.952;2024-03-08T09:53:40;20.40;;;14.73;;
28920;SDS011;16035;53.594;9.952;2024-03-08T09:55:42;19.63;;;15.68;;
28920;SDS011;16035;53.594;9.952;2024-03-08T09:57:44;23.77;;;15.32;;
28920;SDS011;16035;53.594;9.952;2024-03-08T10:00:07;20.10;;;14.65;;
28920;SDS011;16035;53.594;9.952;2024-03-08T10:02:18;16.88;;;14.15;;
28920;SDS011;16035;53.594;9.952;2024-03-08T10:04:18;19.37;;;13.20;;
28920;SDS011;16035;53.594;9.952;2024-03-08T10:08:22;17.42;;;13.80;;
28920;SDS011;16035;53.594;9.952;2024-03-08T10:10:23;18.95;;;13.93;;
28920;SDS011;16035;53.594;9.952;2024-03-08T10:12:23;20.52;;;13.82;;
28920;SDS011;16035;53.594;9.952;2024-03-08T10:16:29;18.80;;;14.25;;
28920;SDS011;16035;53.594;9.952;2024-03-08T10:18:29;19.27;;;14.07;;
28920;SDS011;16035;53.594;9.952;2024-03-08T10:20:30;20.90;;;14.80;;
28920;SDS011;16035;53.594;9.952;2024-03-08T10:22:34;19.10;;;15.00;;
28920;SDS011;16035;53.594;9.952;2024-03-08T10:24:35;19.70;;;14.68;;
28920;SDS011;16035;53.594;9.952;2024-03-08T10:26:35;21.60;;;14.13;;
28920;SDS011;16035;53.594;9.952;2024-03-08T10:28:37;21.33;;;15.07;;
28920;SDS011;16035;53.594;9.952;2024-03-08T10:32:38;18.77;;;12.53;;
28920;SDS011;16035;53.594;9.952;2024-03-08T10:34:39;20.95;;;14.73;;
28920;SDS011;16035;53.594;9.952;2024-03-08T10:36:41;21.20;;;14.98;;
28920;SDS011;16035;53.594;9.952;2024-03-08T10:38:43;22.63;;;14.47;;
28920;SDS011;16035;53.594;9.952;2024-03-08T10:40:46;22.48;;;14.70;;
28920;SDS011;16035;53.594;9.952;2024-03-08T10:42:52;21.25;;;14.15;;
28920;SDS011;16035;53.594;9.952;2024-03-08T10:45:01;20.58;;;13.63;;
28920;SDS011;16035;53.594;9.952;2024-03-08T10:47:26;23.75;;;14.13;;
28920;SDS011;16035;53.594;9.952;2024-03-08T10:49:31;20.80;;;13.90;;
28920;SDS011;16035;53.594;9.952;2024-03-08T10:51:35;21.77;;;13.60;;
28920;SDS011;16035;53.594;9.952;2024-03-08T10:53:38;19.65;;;13.63;;
28920;SDS011;16035;53.594;9.952;2024-03-08T10:55:42;22.33;;;12.80;;
28920;SDS011;16035;53.594;9.952;2024-03-08T10:57:43;20.30;;;13.13;;
28920;SDS011;16035;53.594;9.952;2024-03-08T10:59:44;24.03;;;12.93;;
28920;SDS011;16035;53.594;9.952;2024-03-08T11:01:47;25.08;;;14.18;;
28920;SDS011;16035;53.594;9.952;2024-03-08T11:03:47;20.63;;;12.70;;
28920;SDS011;16035;53.594;9.952;2024-03-08T11:05:53;23.05;;;14.45;;
28920;SDS011;16035;53.594;9.952;2024-03-08T11:07:53;22.27;;;13.60;;
28920;SDS011;16035;53.594;9.952;2024-03-08T11:09:53;19.13;;;13.03;;
28920;SDS011;16035;53.594;9.952;2024-03-08T11:16:44;20.27;;;12.18;;
28920;SDS011;16035;53.594;9.952;2024-03-08T11:18:45;22.45;;;13.02;;
28920;SDS011;16035;53.594;9.952;2024-03-08T11:20:47;20.98;;;12.68;;
28920;SDS011;16035;53.594;9.952;2024-03-08T11:24:53;23.25;;;12.45;;
28920;SDS011;16035;53.594;9.952;2024-03-08T11:26:59;21.77;;;12.13;;
28920;SDS011;16035;53.594;9.952;2024-03-08T11:31:29;22.17;;;12.38;;
28920;SDS011;16035;53.594;9.952;2024-03-08T11:33:30;20.03;;;12.97;;
28920;SDS011;16035;53.594;9.952;2024-03-08T11:35:31;21.13;;;13.35;;
28920;SDS011;16035;53.594;9.952;2024-03-08T11:37:33;20.30;;;12.32;;
28920;SDS011;16035;53.594;9.952;2024-03-08T11:39:37;19.73;;;12.00;;
28920;SDS011;16035;53.594;9.952;2024-03-08T11:41:37;20.23;;;12.33;;
28920;SDS011;16035;53.594;9.952;2024-03-08T11:43:39;18.60;;;12.05;;
28920;SDS011;16035;53.594;9.952;2024-03-08T11:45:41;21.42;;;11.23;;
28920;SDS011;16035;53.594;9.952;2024-03-08T11:47:42;19.77;;;11.67;;
28920;SDS011;16035;53.594;9.952;2024-03-08T11:49:46;17.77;;;11.60;;
28920;SDS011;16035;53.594;9.952;2024-03-08T11:51:50;16.65;;;11.55;;
28920;SDS011;16035;53.594;9.952;2024-03-08T11:53:52;17.08;;;11.20;;
28920;SDS011;16035;53.594;9.952;2024-03-08T11:55:53;17.50;;;11.57;;
28920;SDS011;16035;53.594;9.952;2024-03-08T11:57:59;17.80;;;12.13;;
28920;SDS011;16035;53.594;9.952;2024-03-08T12:00:00;15.48;;;11.57;;
28920;SDS011;16035;53.594;9.952;2024-03-08T12:02:07;18.45;;;11.82;;
28920;SDS011;16035;53.594;9.952;2024-03-08T12:04:11;18.67;;;11.98;;
28920;SDS011;16035;53.594;9.952;2024-03-08T12:06:12;18.88;;;11.90;;
28920;SDS011;16035;53.594;9.952;2024-03-08T12:08:15;18.20;;;12.75;;
28920;SDS011;16035;53.594;9.952;2024-03-08T12:10:19;19.77;;;11.83;;
28920;SDS011;16035;53.594;9.952;2024-03-08T12:12:21;21.83;;;12.63;;